Grand Junction, CO

8:20 AM MDT on September 18, 2014 (GMT -0600)
Montrose Regional | Change Station
CLOSE
Current Station
Airport
Location: Montrose,
Elevation: 5758 ft
Nearby Weather Stations

Elev 5758 ft 38.51 °N, 107.90 °W | Updated 27 minutes ago

Clear
Clear
55 °F
Feels Like 55 °F
N
6
Wind Variable Wind from South

Today
High -- | Low -- °F
--% Chance of Precip.
Yesterday
High -- | Low -- °F
Precip. -- in
6:58 AM 7:17 PM
Waning Crescent, 27% visible
Pressure 29.94 in
Visibility 10.0 miles
Clouds Clear
Dew Point 43 °F
Humidity 64%
Rainfall 0.00 in
Snow Depth 0 in , 0 in , 0 in
UV 1 out of 12
Pollen 5.70 out of 12
Air Quality Not available.
Flu Activity Not available.
METAR KMTJ 181353Z AUTO 19005KT 10SM CLR 13/06 A3014 RMK AO2 SLP136 T01280061

More Conditions Fewer Conditions

Pressure 29.94 in
Visibility 10.0 miles
Clouds Clear
Dew Point 43 °F
Humidity 64%
Rainfall 0.00 in
Snow Depth 0 in , 0 in , 0 in
UV 1 out of 12
Pollen 5.70 out of 12
Air Quality Not available.
Flu Activity Not available.
METAR KMTJ 181353Z AUTO 19005KT 10SM CLR 13/06 A3014 RMK AO2 SLP136 T01280061

More Conditions Fewer Conditions

10-Day Weather Forecast

Almanac

Astronomy

Sep. 18, 2014 Rise Set
Actual Time 6:58 AM MDT 7:17 PM MDT
Civil Twilight 6:31 AM MDT 7:44 PM MDT
Nautical Twilight 6:00 AM MDT 8:15 PM MDT
Astronomical Twilight 5:28 AM MDT 8:47 PM MDT
Moon 1:54 AM MDT 4:09 PM MDT
Length of Visible Light 13h 12m
Length of Day
12h 19m
Tomorrow will be 2m 32s shorter.
Waning Crescent, 27% of the Moon is Illuminated
Today
Waning Crescent
Sep 24
New
Oct 1
First Quarter
Oct 8
Full
Oct 15
Last Quarter

Today's Extremes

State Highs State Lows

Community

WunderPhotos

Upload Photos

1,754,354 photos uploaded!

Nearby

Snow Depth

Station Depth Elevation
Culebra #2 0 in 10500 ft
Stump Lakes 0 in 11200 ft
Trapper Lake 0 in 9700 ft
Tower 1 in 10500 ft
Park Cone 0 in 9600 ft

Earthquake Activity

City Distance Mag. Time & Date
No recent earthquake activity has been reported nearby.
Minimum magnitude displayed is 2.5.

Coastal Water Temperatures

Place Temperature
No Stations Reporting

Nearby Weather Stations